sensor_id;sensor_type;location;lat;lon;timestamp;pressure;altitude;pressure_sealevel;temperature;humidity
47636;BME280;33364;50.766;15.338;2024-01-11T00:01:03;96130.34;;;-7.55;74.66
47636;BME280;33364;50.766;15.338;2024-01-11T00:03:38;96132.91;;;-7.55;75.33
47636;BME280;33364;50.766;15.338;2024-01-11T00:06:04;96132.13;;;-7.55;75.57
47636;BME280;33364;50.766;15.338;2024-01-11T00:08:30;96125.09;;;-7.53;75.81
47636;BME280;33364;50.766;15.338;2024-01-11T00:10:55;96113.75;;;-7.51;74.35
47636;BME280;33364;50.766;15.338;2024-01-11T00:13:21;96117.78;;;-7.48;74.52
47636;BME280;33364;50.766;15.338;2024-01-11T00:15:47;96122.38;;;-7.52;74.59
47636;BME280;33364;50.766;15.338;2024-01-11T00:18:13;96114.53;;;-7.50;75.53
47636;BME280;33364;50.766;15.338;2024-01-11T00:20:38;96117.53;;;-7.55;75.30
47636;BME280;33364;50.766;15.338;2024-01-11T00:23:04;96116.66;;;-7.63;75.39
47636;BME280;33364;50.766;15.338;2024-01-11T00:25:30;96111.97;;;-7.68;75.21
47636;BME280;33364;50.766;15.338;2024-01-11T00:27:56;96106.03;;;-7.69;75.63
47636;BME280;33364;50.766;15.338;2024-01-11T00:30:21;96105.81;;;-7.57;76.41
47636;BME280;33364;50.766;15.338;2024-01-11T00:32:49;96110.00;;;-7.56;76.08
47636;BME280;33364;50.766;15.338;2024-01-11T00:35:14;96115.66;;;-7.53;76.10
47636;BME280;33364;50.766;15.338;2024-01-11T00:37:40;96099.13;;;-7.50;76.67
47636;BME280;33364;50.766;15.338;2024-01-11T00:40:07;96101.06;;;-7.52;75.73
47636;BME280;33364;50.766;15.338;2024-01-11T00:42:33;96098.72;;;-7.63;74.68
47636;BME280;33364;50.766;15.338;2024-01-11T00:45:00;96098.41;;;-7.60;75.34
47636;BME280;33364;50.766;15.338;2024-01-11T00:47:26;96102.22;;;-7.64;75.71
47636;BME280;33364;50.766;15.338;2024-01-11T00:49:52;96094.97;;;-7.69;75.54
47636;BME280;33364;50.766;15.338;2024-01-11T00:52:18;96093.94;;;-7.58;75.60
47636;BME280;33364;50.766;15.338;2024-01-11T00:54:44;96090.72;;;-7.60;74.87
47636;BME280;33364;50.766;15.338;2024-01-11T00:57:10;96088.78;;;-7.76;75.46
47636;BME280;33364;50.766;15.338;2024-01-11T00:59:35;96084.22;;;-7.73;76.17
47636;BME280;33364;50.766;15.338;2024-01-11T01:02:01;96084.66;;;-7.77;75.74
47636;BME280;33364;50.766;15.338;2024-01-11T01:04:27;96087.47;;;-7.80;75.79
47636;BME280;33364;50.766;15.338;2024-01-11T01:06:53;96088.78;;;-7.76;76.31
47636;BME280;33364;50.766;15.338;2024-01-11T01:09:18;96079.13;;;-7.82;76.07
47636;BME280;33364;50.766;15.338;2024-01-11T01:11:44;96075.16;;;-7.77;76.23
47636;BME280;33364;50.766;15.338;2024-01-11T01:14:10;96069.53;;;-7.80;76.20
47636;BME280;33364;50.766;15.338;2024-01-11T01:16:36;96071.59;;;-7.84;75.81
47636;BME280;33364;50.766;15.338;2024-01-11T01:19:01;96068.50;;;-7.87;75.21
47636;BME280;33364;50.766;15.338;2024-01-11T01:21:28;96061.91;;;-7.90;75.59
47636;BME280;33364;50.766;15.338;2024-01-11T01:23:53;96058.91;;;-7.85;76.72
47636;BME280;33364;50.766;15.338;2024-01-11T01:26:19;96063.22;;;-7.86;76.24
47636;BME280;33364;50.766;15.338;2024-01-11T01:28:45;96065.72;;;-7.94;75.77
47636;BME280;33364;50.766;15.338;2024-01-11T01:31:11;96067.63;;;-7.96;76.52
47636;BME280;33364;50.766;15.338;2024-01-11T01:33:37;96073.53;;;-7.95;76.64
47636;BME280;33364;50.766;15.338;2024-01-11T01:36:03;96082.19;;;-7.96;77.17
47636;BME280;33364;50.766;15.338;2024-01-11T01:38:29;96077.28;;;-7.90;76.62
47636;BME280;33364;50.766;15.338;2024-01-11T01:40:56;96074.34;;;-7.95;76.69
47636;BME280;33364;50.766;15.338;2024-01-11T01:43:21;96075.00;;;-7.93;77.12
47636;BME280;33364;50.766;15.338;2024-01-11T01:45:47;96072.97;;;-7.89;77.22
47636;BME280;33364;50.766;15.338;2024-01-11T01:48:13;96055.91;;;-7.98;76.70
47636;BME280;33364;50.766;15.338;2024-01-11T01:50:39;96058.47;;;-7.98;76.90
47636;BME280;33364;50.766;15.338;2024-01-11T01:53:05;96067.97;;;-7.91;77.84
47636;BME280;33364;50.766;15.338;2024-01-11T01:55:32;96068.66;;;-7.89;77.21
47636;BME280;33364;50.766;15.338;2024-01-11T01:57:58;96072.75;;;-7.96;76.90
47636;BME280;33364;50.766;15.338;2024-01-11T02:00:25;96074.59;;;-7.88;78.19
47636;BME280;33364;50.766;15.338;2024-01-11T02:02:51;96070.28;;;-7.88;77.70
47636;BME280;33364;50.766;15.338;2024-01-11T02:05:18;96063.53;;;-7.89;77.35
47636;BME280;33364;50.766;15.338;2024-01-11T02:07:44;96054.13;;;-7.98;76.54
47636;BME280;33364;50.766;15.338;2024-01-11T02:10:10;96044.75;;;-8.07;76.47
47636;BME280;33364;50.766;15.338;2024-01-11T02:12:36;96052.16;;;-8.04;77.08
47636;BME280;33364;50.766;15.338;2024-01-11T02:15:05;96051.19;;;-8.03;76.91
47636;BME280;33364;50.766;15.338;2024-01-11T02:17:31;96054.94;;;-7.97;77.21
47636;BME280;33364;50.766;15.338;2024-01-11T02:19:57;96049.97;;;-7.99;76.48
47636;BME280;33364;50.766;15.338;2024-01-11T02:22:34;96060.22;;;-7.99;76.92
47636;BME280;33364;50.766;15.338;2024-01-11T02:25:01;96061.69;;;-7.96;77.90
47636;BME280;33364;50.766;15.338;2024-01-11T02:27:27;96066.31;;;-7.82;78.08
47636;BME280;33364;50.766;15.338;2024-01-11T02:29:53;96061.84;;;-7.80;78.00
47636;BME280;33364;50.766;15.338;2024-01-11T02:32:19;96046.47;;;-7.80;77.79
47636;BME280;33364;50.766;15.338;2024-01-11T02:34:46;96049.47;;;-7.85;76.29
47636;BME280;33364;50.766;15.338;2024-01-11T02:37:12;96045.78;;;-7.82;76.39
47636;BME280;33364;50.766;15.338;2024-01-11T02:39:39;96045.66;;;-7.81;76.72
47636;BME280;33364;50.766;15.338;2024-01-11T02:42:04;96050.41;;;-7.86;76.13
47636;BME280;33364;50.766;15.338;2024-01-11T02:44:30;96052.59;;;-7.91;75.43
47636;BME280;33364;50.766;15.338;2024-01-11T02:46:56;96054.00;;;-7.96;75.99
47636;BME280;33364;50.766;15.338;2024-01-11T02:49:22;96050.34;;;-7.94;76.30
47636;BME280;33364;50.766;15.338;2024-01-11T02:51:47;96043.84;;;-7.88;76.16
47636;BME280;33364;50.766;15.338;2024-01-11T02:54:13;96051.28;;;-7.95;75.37
47636;BME280;33364;50.766;15.338;2024-01-11T02:56:39;96063.22;;;-7.86;76.78
47636;BME280;33364;50.766;15.338;2024-01-11T02:59:05;96061.59;;;-7.87;76.97
47636;BME280;33364;50.766;15.338;2024-01-11T03:01:30;96051.09;;;-7.84;75.91
47636;BME280;33364;50.766;15.338;2024-01-11T03:03:57;96054.03;;;-7.79;76.24
47636;BME280;33364;50.766;15.338;2024-01-11T03:06:22;96056.47;;;-7.87;75.63
47636;BME280;33364;50.766;15.338;2024-01-11T03:08:49;96049.09;;;-7.90;75.38
47636;BME280;33364;50.766;15.338;2024-01-11T03:11:15;96048.16;;;-7.89;75.51
47636;BME280;33364;50.766;15.338;2024-01-11T03:13:42;96052.59;;;-7.91;75.16
47636;BME280;33364;50.766;15.338;2024-01-11T03:16:08;96045.28;;;-7.86;75.53
47636;BME280;33364;50.766;15.338;2024-01-11T03:18:34;96042.22;;;-7.89;74.77
47636;BME280;33364;50.766;15.338;2024-01-11T03:20:59;96044.34;;;-7.85;74.45
47636;BME280;33364;50.766;15.338;2024-01-11T03:23:25;96041.91;;;-7.86;74.30
47636;BME280;33364;50.766;15.338;2024-01-11T03:25:51;96037.22;;;-7.91;74.31
47636;BME280;33364;50.766;15.338;2024-01-11T03:28:17;96032.97;;;-7.82;74.30
47636;BME280;33364;50.766;15.338;2024-01-11T03:30:43;96021.03;;;-7.91;74.90
47636;BME280;33364;50.766;15.338;2024-01-11T03:33:09;96020.53;;;-7.95;75.46
47636;BME280;33364;50.766;15.338;2024-01-11T03:35:35;96029.75;;;-8.02;75.85
47636;BME280;33364;50.766;15.338;2024-01-11T03:38:01;96017.94;;;-8.13;75.07
47636;BME280;33364;50.766;15.338;2024-01-11T03:40:26;96020.16;;;-8.00;75.96
47636;BME280;33364;50.766;15.338;2024-01-11T03:42:52;96011.22;;;-7.96;75.96
47636;BME280;33364;50.766;15.338;2024-01-11T03:45:18;96013.13;;;-7.98;75.02
47636;BME280;33364;50.766;15.338;2024-01-11T03:47:47;96013.50;;;-7.93;76.28
47636;BME280;33364;50.766;15.338;2024-01-11T03:50:12;96007.41;;;-7.92;75.69
47636;BME280;33364;50.766;15.338;2024-01-11T03:52:39;96001.47;;;-7.92;74.79
47636;BME280;33364;50.766;15.338;2024-01-11T03:55:05;95999.91;;;-7.93;75.88
47636;BME280;33364;50.766;15.338;2024-01-11T03:57:31;95994.91;;;-7.95;75.81
47636;BME280;33364;50.766;15.338;2024-01-11T03:59:57;95999.09;;;-7.94;76.62
47636;BME280;33364;50.766;15.338;2024-01-11T04:02:25;95986.91;;;-7.92;75.63
47636;BME280;33364;50.766;15.338;2024-01-11T04:04:50;95982.59;;;-7.91;75.12
47636;BME280;33364;50.766;15.338;2024-01-11T04:07:16;95975.50;;;-7.97;74.50
47636;BME280;33364;50.766;15.338;2024-01-11T04:09:42;95990.72;;;-7.96;73.41
47636;BME280;33364;50.766;15.338;2024-01-11T04:12:08;95989.66;;;-7.93;73.58
47636;BME280;33364;50.766;15.338;2024-01-11T04:14:37;95976.53;;;-7.90;76.08
47636;BME280;33364;50.766;15.338;2024-01-11T04:17:03;95978.19;;;-7.81;76.94
47636;BME280;33364;50.766;15.338;2024-01-11T04:19:29;95974.25;;;-7.76;76.49
47636;BME280;33364;50.766;15.338;2024-01-11T04:21:55;95970.88;;;-7.76;76.79
47636;BME280;33364;50.766;15.338;2024-01-11T04:24:20;95970.78;;;-7.67;75.41
47636;BME280;33364;50.766;15.338;2024-01-11T04:26:46;95977.75;;;-7.59;75.20
47636;BME280;33364;50.766;15.338;2024-01-11T04:29:12;95970.94;;;-7.68;71.06
47636;BME280;33364;50.766;15.338;2024-01-11T04:31:38;95970.78;;;-7.67;72.93
47636;BME280;33364;50.766;15.338;2024-01-11T04:34:03;95971.81;;;-7.59;74.69
47636;BME280;33364;50.766;15.338;2024-01-11T04:36:29;95987.78;;;-7.65;73.56
47636;BME280;33364;50.766;15.338;2024-01-11T04:38:55;95984.28;;;-7.64;72.56
47636;BME280;33364;50.766;15.338;2024-01-11T04:41:21;95982.66;;;-7.65;71.32
47636;BME280;33364;50.766;15.338;2024-01-11T04:43:46;95993.00;;;-7.57;72.27
47636;BME280;33364;50.766;15.338;2024-01-11T04:46:19;95979.13;;;-7.64;71.00
47636;BME280;33364;50.766;15.338;2024-01-11T04:48:46;95988.44;;;-7.63;71.00
47636;BME280;33364;50.766;15.338;2024-01-11T04:51:14;95988.91;;;-7.68;70.30
47636;BME280;33364;50.766;15.338;2024-01-11T04:53:40;95988.72;;;-7.67;70.79
47636;BME280;33364;50.766;15.338;2024-01-11T04:56:07;95991.97;;;-7.64;70.83
47636;BME280;33364;50.766;15.338;2024-01-11T04:58:34;95984.19;;;-7.55;70.95
47636;BME280;33364;50.766;15.338;2024-01-11T05:01:00;95990.44;;;-7.57;68.70
47636;BME280;33364;50.766;15.338;2024-01-11T05:03:26;95989.47;;;-7.56;70.54
47636;BME280;33364;50.766;15.338;2024-01-11T05:05:52;95990.88;;;-7.62;69.66
47636;BME280;33364;50.766;15.338;2024-01-11T05:08:17;95989.53;;;-7.66;69.53
47636;BME280;33364;50.766;15.338;2024-01-11T05:10:43;95992.91;;;-7.65;70.98
47636;BME280;33364;50.766;15.338;2024-01-11T05:13:10;95994.03;;;-7.68;71.18
47636;BME280;33364;50.766;15.338;2024-01-11T05:15:36;95986.16;;;-7.67;71.04
47636;BME280;33364;50.766;15.338;2024-01-11T05:18:01;95983.78;;;-7.68;71.11
47636;BME280;33364;50.766;15.338;2024-01-11T05:20:27;95984.41;;;-7.66;70.98
47636;BME280;33364;50.766;15.338;2024-01-11T05:22:53;95990.22;;;-7.64;72.42
47636;BME280;33364;50.766;15.338;2024-01-11T05:25:20;95981.03;;;-7.67;73.35
47636;BME280;33364;50.766;15.338;2024-01-11T05:27:45;95984.84;;;-7.71;71.16
47636;BME280;33364;50.766;15.338;2024-01-11T05:30:11;95981.34;;;-7.70;71.57
47636;BME280;33364;50.766;15.338;2024-01-11T05:32:37;95983.78;;;-7.68;72.10
47636;BME280;33364;50.766;15.338;2024-01-11T05:35:04;95990.94;;;-7.72;73.24
47636;BME280;33364;50.766;15.338;2024-01-11T05:37:29;95993.81;;;-7.75;73.51
47636;BME280;33364;50.766;15.338;2024-01-11T05:39:55;95992.78;;;-7.82;73.29
47636;BME280;33364;50.766;15.338;2024-01-11T05:42:23;95989.25;;;-7.81;73.46
47636;BME280;33364;50.766;15.338;2024-01-11T05:44:50;95987.59;;;-7.72;72.88
47636;BME280;33364;50.766;15.338;2024-01-11T05:47:15;95988.66;;;-7.75;72.94
47636;BME280;33364;50.766;15.338;2024-01-11T05:49:41;95989.97;;;-7.71;72.56
47636;BME280;33364;50.766;15.338;2024-01-11T05:52:07;95987.41;;;-7.71;73.48
47636;BME280;33364;50.766;15.338;2024-01-11T05:54:32;95985.97;;;-7.73;71.68
47636;BME280;33364;50.766;15.338;2024-01-11T05:56:58;95985.88;;;-7.63;71.43
47636;BME280;33364;50.766;15.338;2024-01-11T05:59:25;95970.78;;;-7.67;71.64
47636;BME280;33364;50.766;15.338;2024-01-11T06:01:51;95981.66;;;-7.73;72.20
47636;BME280;33364;50.766;15.338;2024-01-11T06:04:17;95978.78;;;-7.70;72.39
47636;BME280;33364;50.766;15.338;2024-01-11T06:06:43;95976.13;;;-7.60;72.61
47636;BME280;33364;50.766;15.338;2024-01-11T06:09:08;95965.72;;;-7.58;71.17
47636;BME280;33364;50.766;15.338;2024-01-11T06:11:35;95962.25;;;-7.49;73.38
47636;BME280;33364;50.766;15.338;2024-01-11T06:14:01;95963.06;;;-7.49;74.38
47636;BME280;33364;50.766;15.338;2024-01-11T06:16:28;95957.00;;;-7.48;74.66
47636;BME280;33364;50.766;15.338;2024-01-11T06:18:54;95958.38;;;-7.36;72.94
47636;BME280;33364;50.766;15.338;2024-01-11T06:21:20;95972.63;;;-7.33;73.14
47636;BME280;33364;50.766;15.338;2024-01-11T06:23:46;95961.75;;;-7.35;74.59
47636;BME280;33364;50.766;15.338;2024-01-11T06:26:11;95959.78;;;-7.41;73.18
47636;BME280;33364;50.766;15.338;2024-01-11T06:28:37;95958.97;;;-7.42;72.74
47636;BME280;33364;50.766;15.338;2024-01-11T06:31:03;95973.53;;;-7.42;72.54
47636;BME280;33364;50.766;15.338;2024-01-11T06:33:29;95969.31;;;-7.51;73.60
47636;BME280;33364;50.766;15.338;2024-01-11T06:35:55;95961.75;;;-7.53;74.61
47636;BME280;33364;50.766;15.338;2024-01-11T06:38:21;95961.75;;;-7.53;74.37
47636;BME280;33364;50.766;15.338;2024-01-11T06:40:50;95942.69;;;-7.50;76.06
47636;BME280;33364;50.766;15.338;2024-01-11T06:43:16;95954.56;;;-7.49;74.94
47636;BME280;33364;50.766;15.338;2024-01-11T06:45:42;95957.13;;;-7.49;74.67
47636;BME280;33364;50.766;15.338;2024-01-11T06:48:08;95964.47;;;-7.54;74.68
47636;BME280;33364;50.766;15.338;2024-01-11T06:50:34;95958.34;;;-7.61;73.52
47636;BME280;33364;50.766;15.338;2024-01-11T06:53:01;95952.69;;;-7.65;74.51
47636;BME280;33364;50.766;15.338;2024-01-11T06:55:27;95948.50;;;-7.66;75.54
47636;BME280;33364;50.766;15.338;2024-01-11T06:57:53;95949.31;;;-7.65;75.58
47636;BME280;33364;50.766;15.338;2024-01-11T07:00:19;95943.25;;;-7.64;76.05
47636;BME280;33364;50.766;15.338;2024-01-11T07:02:45;95946.63;;;-7.64;75.60
47636;BME280;33364;50.766;15.338;2024-01-11T07:05:10;95952.91;;;-7.58;75.64
47636;BME280;33364;50.766;15.338;2024-01-11T07:07:38;95933.19;;;-7.58;75.61
47636;BME280;33364;50.766;15.338;2024-01-11T07:10:03;95918.16;;;-7.53;74.52
47636;BME280;33364;50.766;15.338;2024-01-11T07:12:31;95921.91;;;-7.47;73.65
47636;BME280;33364;50.766;15.338;2024-01-11T07:14:57;95917.91;;;-7.42;75.18
47636;BME280;33364;50.766;15.338;2024-01-11T07:17:23;95920.97;;;-7.38;74.50
47636;BME280;33364;50.766;15.338;2024-01-11T07:19:49;95931.59;;;-7.33;74.33
47636;BME280;33364;50.766;15.338;2024-01-11T07:22:15;95938.81;;;-7.29;74.31
47636;BME280;33364;50.766;15.338;2024-01-11T07:24:40;95934.84;;;-7.23;75.79
47636;BME280;33364;50.766;15.338;2024-01-11T07:27:07;95935.19;;;-7.18;75.47
47636;BME280;33364;50.766;15.338;2024-01-11T07:29:33;95919.41;;;-7.05;75.01
47636;BME280;33364;50.766;15.338;2024-01-11T07:31:59;95914.63;;;-6.92;75.26
47636;BME280;33364;50.766;15.338;2024-01-11T07:34:26;95916.78;;;-6.79;75.15
47636;BME280;33364;50.766;15.338;2024-01-11T07:36:52;95934.00;;;-6.72;75.29
47636;BME280;33364;50.766;15.338;2024-01-11T07:39:18;95922.72;;;-6.71;74.93
47636;BME280;33364;50.766;15.338;2024-01-11T07:41:45;95917.50;;;-6.61;75.30
47636;BME280;33364;50.766;15.338;2024-01-11T07:44:11;95923.59;;;-6.54;74.88
47636;BME280;33364;50.766;15.338;2024-01-11T07:46:37;95923.78;;;-6.48;73.82
47636;BME280;33364;50.766;15.338;2024-01-11T07:49:03;95921.53;;;-6.43;73.55
47636;BME280;33364;50.766;15.338;2024-01-11T07:51:29;95924.31;;;-6.36;72.96
47636;BME280;33364;50.766;15.338;2024-01-11T07:53:54;95914.81;;;-6.27;73.78
47636;BME280;33364;50.766;15.338;2024-01-11T07:56:20;95920.00;;;-6.19;74.44
47636;BME280;33364;50.766;15.338;2024-01-11T07:58:46;95925.28;;;-6.21;73.50
47636;BME280;33364;50.766;15.338;2024-01-11T08:01:12;95915.00;;;-6.13;72.88
47636;BME280;33364;50.766;15.338;2024-01-11T08:03:38;95902.81;;;-6.03;72.42
47636;BME280;33364;50.766;15.338;2024-01-11T08:06:04;95901.22;;;-5.95;72.85
47636;BME280;33364;50.766;15.338;2024-01-11T08:08:33;95896.38;;;-5.90;73.97
47636;BME280;33364;50.766;15.338;2024-01-11T08:10:59;95890.78;;;-5.94;74.39
47636;BME280;33364;50.766;15.338;2024-01-11T08:13:25;95890.63;;;-5.92;74.41
47636;BME280;33364;50.766;15.338;2024-01-11T08:15:51;95896.38;;;-5.90;75.11
47636;BME280;33364;50.766;15.338;2024-01-11T08:18:19;95902.78;;;-5.86;74.92
47636;BME280;33364;50.766;15.338;2024-01-11T08:20:45;95912.09;;;-5.85;74.08
47636;BME280;33364;50.766;15.338;2024-01-11T08:23:10;95914.03;;;-5.79;73.14
47636;BME280;33364;50.766;15.338;2024-01-11T08:25:36;95917.25;;;-5.77;73.37
47636;BME280;33364;50.766;15.338;2024-01-11T08:28:02;95913.75;;;-5.76;72.97
47636;BME280;33364;50.766;15.338;2024-01-11T08:30:29;95916.94;;;-5.74;71.50
47636;BME280;33364;50.766;15.338;2024-01-11T08:32:54;95917.41;;;-5.71;72.08
47636;BME280;33364;50.766;15.338;2024-01-11T08:35:21;95920.97;;;-5.72;72.56
47636;BME280;33364;50.766;15.338;2024-01-11T08:37:47;95905.03;;;-5.67;72.08
47636;BME280;33364;50.766;15.338;2024-01-11T08:40:13;95901.31;;;-5.65;72.54
47636;BME280;33364;50.766;15.338;2024-01-11T08:42:39;95891.34;;;-5.60;71.74
47636;BME280;33364;50.766;15.338;2024-01-11T08:45:06;95894.44;;;-5.56;72.24
47636;BME280;33364;50.766;15.338;2024-01-11T08:47:33;95889.91;;;-5.46;70.31
47636;BME280;33364;50.766;15.338;2024-01-11T08:49:59;95905.00;;;-5.35;72.00
47636;BME280;33364;50.766;15.338;2024-01-11T08:52:25;95894.06;;;-5.29;70.53
47636;BME280;33364;50.766;15.338;2024-01-11T08:54:51;95891.41;;;-5.13;70.60
47636;BME280;33364;50.766;15.338;2024-01-11T08:57:17;95896.97;;;-4.85;70.08
47636;BME280;33364;50.766;15.338;2024-01-11T08:59:43;95906.69;;;-4.64;67.38
47636;BME280;33364;50.766;15.338;2024-01-11T09:02:08;95905.94;;;-4.42;67.45
47636;BME280;33364;50.766;15.338;2024-01-11T09:04:34;95897.28;;;-4.18;66.07
47636;BME280;33364;50.766;15.338;2024-01-11T09:07:00;95901.16;;;-3.99;65.28
47636;BME280;33364;50.766;15.338;2024-01-11T09:09:25;95909.31;;;-3.88;65.45
47636;BME280;33364;50.766;15.338;2024-01-11T09:11:51;95902.31;;;-3.79;65.37
47636;BME280;33364;50.766;15.338;2024-01-11T09:14:17;95899.31;;;-3.68;65.30
47636;BME280;33364;50.766;15.338;2024-01-11T09:16:43;95894.78;;;-3.66;65.19
47636;BME280;33364;50.766;15.338;2024-01-11T09:19:10;95901.03;;;-3.60;65.92
47636;BME280;33364;50.766;15.338;2024-01-11T09:21:36;95904.50;;;-3.53;65.64
47636;BME280;33364;50.766;15.338;2024-01-11T09:24:02;95907.19;;;-3.47;66.35
47636;BME280;33364;50.766;15.338;2024-01-11T09:26:28;95902.94;;;-3.39;67.07
47636;BME280;33364;50.766;15.338;2024-01-11T09:28:54;95908.56;;;-3.36;67.46
47636;BME280;33364;50.766;15.338;2024-01-11T09:31:19;95896.56;;;-3.29;66.72
47636;BME280;33364;50.766;15.338;2024-01-11T09:33:45;95895.66;;;-3.21;65.87
47636;BME280;33364;50.766;15.338;2024-01-11T09:36:13;95891.50;;;-3.08;65.63
47636;BME280;33364;50.766;15.338;2024-01-11T09:38:39;95889.59;;;-2.99;65.61
47636;BME280;33364;50.766;15.338;2024-01-11T09:41:09;95890.69;;;-2.93;66.05
47636;BME280;33364;50.766;15.338;2024-01-11T09:43:36;95876.69;;;-2.84;64.82
47636;BME280;33364;50.766;15.338;2024-01-11T09:46:03;95866.25;;;-2.76;64.79
47636;BME280;33364;50.766;15.338;2024-01-11T09:48:35;95882.72;;;-2.63;62.84
47636;BME280;33364;50.766;15.338;2024-01-11T09:51:01;95886.63;;;-2.52;63.35
47636;BME280;33364;50.766;15.338;2024-01-11T09:53:32;95885.72;;;-2.44;63.38
47636;BME280;33364;50.766;15.338;2024-01-11T09:55:58;95888.03;;;-2.35;62.78
47636;BME280;33364;50.766;15.338;2024-01-11T09:58:25;95890.69;;;-2.28;64.21
47636;BME280;33364;50.766;15.338;2024-01-11T10:00:54;95891.06;;;-2.10;60.08
47636;BME280;33364;50.766;15.338;2024-01-11T10:03:24;95875.28;;;-1.94;57.87
47636;BME280;33364;50.766;15.338;2024-01-11T10:05:50;95878.00;;;-1.81;57.20
47636;BME280;33364;50.766;15.338;2024-01-11T10:08:19;95878.50;;;-1.71;56.55
47636;BME280;33364;50.766;15.338;2024-01-11T10:10:47;95873.66;;;-1.52;52.35
47636;BME280;33364;50.766;15.338;2024-01-11T10:13:14;95860.94;;;-1.47;51.94
47636;BME280;33364;50.766;15.338;2024-01-11T10:15:40;95860.56;;;-1.44;51.98
47636;BME280;33364;50.766;15.338;2024-01-11T10:18:06;95852.25;;;-1.40;50.47
47636;BME280;33364;50.766;15.338;2024-01-11T10:20:32;95851.28;;;-1.32;50.54
47636;BME280;33364;50.766;15.338;2024-01-11T10:22:58;95835.19;;;-1.27;48.02
47636;BME280;33364;50.766;15.338;2024-01-11T10:25:24;95835.66;;;-1.17;46.36
47636;BME280;33364;50.766;15.338;2024-01-11T10:27:50;95840.44;;;-1.14;47.58
47636;BME280;33364;50.766;15.338;2024-01-11T10:30:16;95844.06;;;-1.09;49.79
47636;BME280;33364;50.766;15.338;2024-01-11T10:32:46;95841.91;;;-0.99;50.75
47636;BME280;33364;50.766;15.338;2024-01-11T10:35:12;95838.56;;;-0.93;47.39
47636;BME280;33364;50.766;15.338;2024-01-11T10:37:39;95846.16;;;-0.85;48.15
47636;BME280;33364;50.766;15.338;2024-01-11T10:40:06;95831.63;;;-0.79;47.56
47636;BME280;33364;50.766;15.338;2024-01-11T10:42:41;95830.66;;;-0.71;45.25
47636;BME280;33364;50.766;15.338;2024-01-11T10:45:14;95824.31;;;-0.62;42.96
47636;BME280;33364;50.766;15.338;2024-01-11T10:50:12;95825.75;;;-0.47;43.68
47636;BME280;33364;50.766;15.338;2024-01-11T10:52:43;95816.41;;;-0.41;43.92
47636;BME280;33364;50.766;15.338;2024-01-11T10:55:12;95815.81;;;-0.36;44.66
47636;BME280;33364;50.766;15.338;2024-01-11T10:57:39;95811.25;;;-0.28;44.26
47636;BME280;33364;50.766;15.338;2024-01-11T11:00:05;95813.25;;;-0.23;44.58
47636;BME280;33364;50.766;15.338;2024-01-11T11:02:34;95799.88;;;-0.14;43.67
47636;BME280;33364;50.766;15.338;2024-01-11T11:05:01;95793.50;;;-0.11;43.30
47636;BME280;33364;50.766;15.338;2024-01-11T11:07:31;95792.91;;;-0.07;43.31
47636;BME280;33364;50.766;15.338;2024-01-11T11:10:01;95790.50;;;-0.08;44.35
47636;BME280;33364;50.766;15.338;2024-01-11T11:12:32;95787.72;;;-0.07;44.07
47636;BME280;33364;50.766;15.338;2024-01-11T11:15:01;95778.13;;;0.00;43.74
47636;BME280;33364;50.766;15.338;2024-01-11T11:17:28;95777.34;;;0.00;44.31
47636;BME280;33364;50.766;15.338;2024-01-11T11:19:54;95774.53;;;0.02;43.43
47636;BME280;33364;50.766;15.338;2024-01-11T11:22:20;95778.53;;;0.11;42.02
47636;BME280;33364;50.766;15.338;2024-01-11T11:24:46;95773.13;;;0.12;42.90
47636;BME280;33364;50.766;15.338;2024-01-11T11:27:16;95772.34;;;0.25;42.46
47636;BME280;33364;50.766;15.338;2024-01-11T11:29:41;95772.50;;;0.43;42.10
47636;BME280;33364;50.766;15.338;2024-01-11T11:32:14;95762.69;;;0.58;40.86
47636;BME280;33364;50.766;15.338;2024-01-11T11:34:43;95756.66;;;0.77;39.53
47636;BME280;33364;50.766;15.338;2024-01-11T11:37:10;95766.44;;;0.89;41.12
47636;BME280;33364;50.766;15.338;2024-01-11T11:39:36;95762.78;;;0.96;41.40
47636;BME280;33364;50.766;15.338;2024-01-11T11:42:03;95749.03;;;0.89;39.84
47636;BME280;33364;50.766;15.338;2024-01-11T11:44:29;95750.22;;;0.87;39.68
47636;BME280;33364;50.766;15.338;2024-01-11T11:47:20;95751.66;;;0.82;39.54
47636;BME280;33364;50.766;15.338;2024-01-11T11:52:25;95745.91;;;0.67;39.60
47636;BME280;33364;50.766;15.338;2024-01-11T11:54:52;95744.72;;;0.63;40.40
47636;BME280;33364;50.766;15.338;2024-01-11T11:57:19;95742.13;;;0.57;40.11
47636;BME280;33364;50.766;15.338;2024-01-11T11:59:46;95748.31;;;0.62;39.20
47636;BME280;33364;50.766;15.338;2024-01-11T12:02:16;95738.09;;;0.61;39.69
47636;BME280;33364;50.766;15.338;2024-01-11T12:04:48;95738.72;;;0.56;39.54
47636;BME280;33364;50.766;15.338;2024-01-11T12:07:14;95738.72;;;0.56;39.92
47636;BME280;33364;50.766;15.338;2024-01-11T12:09:41;95740.09;;;0.59;40.05
47636;BME280;33364;50.766;15.338;2024-01-11T12:12:07;95723.50;;;0.66;39.52
47636;BME280;33364;50.766;15.338;2024-01-11T12:14:34;95727.91;;;0.66;41.24
47636;BME280;33364;50.766;15.338;2024-01-11T12:17:01;95721.72;;;0.60;41.01
47636;BME280;33364;50.766;15.338;2024-01-11T12:19:28;95726.13;;;0.60;41.95
47636;BME280;33364;50.766;15.338;2024-01-11T12:21:54;95724.50;;;0.65;43.40
47636;BME280;33364;50.766;15.338;2024-01-11T12:24:20;95721.72;;;0.60;45.48
47636;BME280;33364;50.766;15.338;2024-01-11T12:26:48;95739.91;;;0.60;47.50
47636;BME280;33364;50.766;15.338;2024-01-11T12:29:17;95732.09;;;0.60;47.79
47636;BME280;33364;50.766;15.338;2024-01-11T12:31:44;95727.34;;;0.57;48.36
47636;BME280;33364;50.766;15.338;2024-01-11T12:34:11;95724.75;;;0.51;49.76
47636;BME280;33364;50.766;15.338;2024-01-11T12:36:38;95733.72;;;0.55;51.27
47636;BME280;33364;50.766;15.338;2024-01-11T12:39:04;95723.13;;;0.56;52.26
47636;BME280;33364;50.766;15.338;2024-01-11T12:41:32;95721.09;;;0.58;53.63
47636;BME280;33364;50.766;15.338;2024-01-11T12:43:58;95710.13;;;0.56;55.06
47636;BME280;33364;50.766;15.338;2024-01-11T12:46:24;95692.75;;;0.57;55.70
47636;BME280;33364;50.766;15.338;2024-01-11T12:48:50;95690.94;;;0.57;57.38
47636;BME280;33364;50.766;15.338;2024-01-11T12:51:17;95688.34;;;0.57;58.79